Time;durP1;ratioP1;P1;durP2;ratioP2;P2;SDS_P1;SDS_P2;PMS_P1;PMS_P2;Temp;Humidity;BMP_temperature;BMP_pressure;BME280_temperature;BME280_humidity;BME280_pressure;Samples;Min_cycle;Max_cycle;Signal;HPM_P1;HPM_P2
2021/12/03 00:02:21;;;;;;;41.08;15.32;;;-0.20;99.90;;;;;;5113881;27;20087;-72
2021/12/03 00:04:46;;;;;;;33.58;14.38;;;-0.10;99.90;;;;;;5114557;27;20034;-72
2021/12/03 00:07:12;;;;;;;32.53;12.55;;;-0.10;99.90;;;;;;5115155;27;20089;-71
2021/12/03 00:09:37;;;;;;;26.75;10.30;;;0.00;99.90;;;;;;5115047;27;20042;-73
2021/12/03 00:12:04;;;;;;;25.45;10.55;;;0.00;99.90;;;;;;5114152;27;20031;-73
2021/12/03 00:14:31;;;;;;;32.15;11.75;;;0.00;99.90;;;;;;5114746;27;20047;-72
2021/12/03 00:16:57;;;;;;;36.55;13.40;;;-0.10;99.90;;;;;;5114312;27;20039;-73
2021/12/03 00:19:22;;;;;;;36.25;14.82;;;-0.10;99.90;;;;;;5113923;27;20041;-72
2021/12/03 00:21:48;;;;;;;39.50;15.65;;;-0.20;99.90;;;;;;5114672;27;20381;-72
2021/12/03 00:24:13;;;;;;;47.33;18.90;;;-0.10;99.90;;;;;;5114900;27;20369;-72
2021/12/03 00:26:39;;;;;;;55.95;21.05;;;-0.10;99.90;;;;;;5114676;27;20039;-73
2021/12/03 00:29:05;;;;;;;52.42;20.85;;;-0.10;99.90;;;;;;5114441;27;20096;-71
2021/12/03 00:31:31;;;;;;;41.45;16.88;;;-0.10;99.90;;;;;;5114497;28;20054;-72
2021/12/03 00:33:56;;;;;;;44.58;15.73;;;-0.10;99.90;;;;;;5097411;27;20065;-72
2021/12/03 00:36:23;;;;;;;33.15;15.00;;;-0.10;99.90;;;;;;5113712;27;20525;-73
2021/12/03 00:38:54;;;;;;;31.75;14.88;;;-0.10;99.90;;;;;;5109699;27;20523;-73
2021/12/03 00:41:20;;;;;;;37.10;16.10;;;-0.10;99.90;;;;;;5114012;27;20043;-72
2021/12/03 00:43:50;;;;;;;34.10;14.95;;;-0.20;99.90;;;;;;5113999;27;20110;-71
2021/12/03 00:46:17;;;;;;;42.92;17.77;;;-0.20;99.90;;;;;;5114298;27;20039;-71
2021/12/03 00:48:48;;;;;;;38.28;17.88;;;-0.20;99.90;;;;;;5114299;27;20559;-72
2021/12/03 00:51:15;;;;;;;40.17;18.25;;;-0.20;99.90;;;;;;5096851;27;20038;-71
2021/12/03 00:53:41;;;;;;;45.67;19.55;;;-0.20;99.90;;;;;;5114097;27;20130;-71
2021/12/03 00:56:08;;;;;;;43.90;19.40;;;-0.20;99.90;;;;;;5114103;27;20125;-71
2021/12/03 00:58:35;;;;;;;47.83;20.20;;;-0.20;99.90;;;;;;5095283;27;20286;-72
2021/12/03 01:01:01;;;;;;;48.83;21.35;;;-0.20;99.90;;;;;;5112476;27;20031;-73
2021/12/03 01:03:28;;;;;;;55.55;23.45;;;-0.10;99.90;;;;;;5112776;27;20047;-73
2021/12/03 01:05:55;;;;;;;49.70;23.48;;;-0.20;99.90;;;;;;5113422;27;20047;-71
2021/12/03 01:08:21;;;;;;;56.42;24.30;;;-0.20;99.90;;;;;;5113145;27;20054;-70
2021/12/03 01:10:46;;;;;;;60.65;27.25;;;-0.10;99.90;;;;;;5112671;27;20426;-71
2021/12/03 01:13:12;;;;;;;62.88;26.45;;;-0.20;99.90;;;;;;5113018;27;20047;-73
2021/12/03 01:15:39;;;;;;;63.08;27.33;;;-0.10;99.90;;;;;;5112652;27;20035;-72
2021/12/03 01:18:06;;;;;;;61.33;28.02;;;-0.10;99.90;;;;;;5112672;27;20039;-73
2021/12/03 01:20:33;;;;;;;67.15;28.75;;;-0.10;99.90;;;;;;5112756;27;20117;-72
2021/12/03 01:23:00;;;;;;;64.95;30.15;;;-0.10;99.90;;;;;;5113646;27;20088;-72
2021/12/03 01:25:26;;;;;;;64.63;28.92;;;-0.10;99.90;;;;;;5113002;27;20042;-73
2021/12/03 01:27:52;;;;;;;69.45;30.95;;;-0.10;99.90;;;;;;5112890;27;20402;-72
2021/12/03 01:30:20;;;;;;;68.55;31.48;;;-0.10;99.90;;;;;;5095933;27;20088;-71
2021/12/03 01:32:47;;;;;;;63.63;30.10;;;-0.10;99.90;;;;;;5113093;27;20049;-69
2021/12/03 01:35:14;;;;;;;69.55;31.15;;;0.00;99.90;;;;;;5113499;28;20355;-73
2021/12/03 01:37:40;;;;;;;72.45;31.70;;;0.00;99.90;;;;;;5112879;27;20047;-71
2021/12/03 01:40:10;;;;;;;76.28;32.05;;;0.00;99.90;;;;;;5113349;27;20043;-71
2021/12/03 01:42:38;;;;;;;67.68;30.13;;;0.00;99.90;;;;;;5096057;27;20063;-72
2021/12/03 01:45:06;;;;;;;68.93;30.98;;;0.00;99.90;;;;;;5113409;27;20047;-71
2021/12/03 01:47:32;;;;;;;73.88;31.15;;;0.10;99.90;;;;;;5112578;28;20039;-72
2021/12/03 01:49:57;;;;;;;67.05;31.00;;;0.10;99.90;;;;;;5113389;28;20378;-71
2021/12/03 01:52:23;;;;;;;60.78;29.63;;;0.00;99.90;;;;;;5113350;28;20074;-70
2021/12/03 01:54:48;;;;;;;66.45;31.52;;;0.10;99.90;;;;;;5113838;28;20039;-70
2021/12/03 01:57:14;;;;;;;72.18;31.60;;;0.10;99.90;;;;;;5113337;28;20343;-71
2021/12/03 01:59:39;;;;;;;72.63;29.98;;;0.20;99.90;;;;;;5114117;28;20027;-70
2021/12/03 02:02:05;;;;;;;82.07;32.20;;;0.20;99.90;;;;;;5114037;28;20100;-71
2021/12/03 02:04:31;;;;;;;74.35;30.80;;;0.20;99.90;;;;;;5114049;28;20042;-69
2021/12/03 02:06:56;;;;;;;65.50;28.52;;;0.20;99.90;;;;;;5113464;28;20478;-74
2021/12/03 02:09:22;;;;;;;64.30;29.80;;;0.20;99.90;;;;;;5112332;28;20039;-70
2021/12/03 02:11:47;;;;;;;68.72;29.85;;;0.20;99.90;;;;;;5110209;28;20031;-71
2021/12/03 02:14:13;;;;;;;66.32;30.85;;;0.20;99.90;;;;;;5113504;28;20552;-70
2021/12/03 02:16:44;;;;;;;71.20;30.83;;;0.30;99.90;;;;;;5113966;28;20477;-71
2021/12/03 02:19:09;;;;;;;68.50;31.15;;;0.30;99.90;;;;;;5113424;28;20031;-69
2021/12/03 02:21:35;;;;;;;68.05;30.73;;;0.30;99.90;;;;;;5096309;28;20047;-71
2021/12/03 02:24:01;;;;;;;70.30;30.02;;;0.30;99.90;;;;;;5113486;28;20031;-71
2021/12/03 02:26:26;;;;;;;65.45;30.70;;;0.30;99.90;;;;;;5113653;28;20417;-70
2021/12/03 02:28:52;;;;;;;72.65;31.85;;;0.40;99.90;;;;;;5113201;28;20086;-70
2021/12/03 02:31:20;;;;;;;71.50;31.38;;;0.40;99.90;;;;;;5096021;28;20050;-72
2021/12/03 02:33:46;;;;;;;75.28;31.63;;;0.40;99.90;;;;;;5113709;28;20059;-70
2021/12/03 02:36:12;;;;;;;67.68;31.77;;;0.40;99.90;;;;;;5113178;28;20470;-70
2021/12/03 02:38:38;;;;;;;70.22;32.70;;;0.40;99.90;;;;;;5113894;28;20054;-72
2021/12/03 02:41:04;;;;;;;70.00;33.13;;;0.40;99.90;;;;;;5113296;28;20035;-70
2021/12/03 02:43:30;;;;;;;82.10;33.58;;;0.40;99.90;;;;;;5112897;28;20039;-69
2021/12/03 02:45:57;;;;;;;66.45;30.83;;;0.40;99.90;;;;;;5113641;28;20043;-70
2021/12/03 02:48:24;;;;;;;68.70;30.98;;;0.40;99.90;;;;;;5113366;28;20039;-71
2021/12/03 02:50:50;;;;;;;71.53;32.47;;;0.40;99.90;;;;;;5096093;28;20046;-71
2021/12/03 02:53:16;;;;;;;75.35;32.17;;;0.40;99.90;;;;;;5096147;28;20043;-71
2021/12/03 02:55:42;;;;;;;78.07;34.50;;;0.40;99.90;;;;;;5097613;27;20047;-71
2021/12/03 02:58:08;;;;;;;70.22;31.42;;;0.40;99.90;;;;;;5117066;27;20062;-71
2021/12/03 03:00:36;;;;;;;69.50;31.08;;;0.40;99.90;;;;;;5116601;27;20119;-71
2021/12/03 03:03:02;;;;;;;59.33;29.95;;;0.40;99.90;;;;;;5116614;27;20050;-72
2021/12/03 03:05:28;;;;;;;68.20;30.70;;;0.40;99.90;;;;;;5116218;27;20478;-72
2021/12/03 03:07:54;;;;;;;67.03;31.42;;;0.40;99.90;;;;;;5116210;27;20049;-73
2021/12/03 03:10:25;;;;;;;63.92;30.23;;;0.40;99.90;;;;;;5116308;27;20114;-72
2021/12/03 03:12:52;;;;;;;64.63;30.42;;;0.40;99.90;;;;;;5117008;27;20067;-71
2021/12/03 03:15:18;;;;;;;71.80;30.90;;;0.40;99.90;;;;;;5116141;27;20031;-71
2021/12/03 03:17:45;;;;;;;66.95;30.67;;;0.40;99.90;;;;;;5116226;27;20066;-72
2021/12/03 03:20:11;;;;;;;67.10;30.65;;;0.40;99.90;;;;;;5116424;27;20528;-70
2021/12/03 03:22:38;;;;;;;73.68;31.10;;;0.40;99.90;;;;;;5116809;27;20039;-69
2021/12/03 03:25:06;;;;;;;65.35;30.25;;;0.40;99.90;;;;;;5116483;27;20526;-70
2021/12/03 03:27:31;;;;;;;70.28;30.65;;;0.40;99.90;;;;;;5116574;27;20039;-70
2021/12/03 03:29:58;;;;;;;68.03;30.38;;;0.50;99.90;;;;;;5115864;27;20039;-70
2021/12/03 03:32:24;;;;;;;65.00;30.88;;;0.50;99.90;;;;;;5116691;27;20035;-71
2021/12/03 03:34:49;;;;;;;63.25;30.58;;;0.50;99.90;;;;;;5116272;27;20038;-71
2021/12/03 03:37:15;;;;;;;73.53;31.08;;;0.50;99.90;;;;;;5116221;27;20130;-72
2021/12/03 03:39:43;;;;;;;73.97;31.23;;;0.50;99.90;;;;;;5098119;27;20035;-71
2021/12/03 03:42:08;;;;;;;69.05;30.30;;;0.50;99.90;;;;;;5116131;27;20034;-71
2021/12/03 03:44:34;;;;;;;64.72;30.17;;;0.50;99.90;;;;;;5112543;27;20416;-71
2021/12/03 03:47:01;;;;;;;77.97;32.38;;;0.60;99.90;;;;;;5098631;27;20064;-71
2021/12/03 03:49:27;;;;;;;61.25;28.83;;;0.50;99.90;;;;;;5115892;27;20027;-72
2021/12/03 03:51:55;;;;;;;65.53;29.13;;;0.60;99.90;;;;;;5116096;27;20164;-69
2021/12/03 03:54:21;;;;;;;64.20;27.83;;;0.50;99.90;;;;;;5116116;27;20031;-71
2021/12/03 03:56:47;;;;;;;60.97;28.00;;;0.50;99.90;;;;;;5114325;27;20031;-71
2021/12/03 03:59:17;;;;;;;61.22;28.13;;;0.50;99.90;;;;;;5115460;27;20088;-71
2021/12/03 04:01:44;;;;;;;59.80;27.45;;;0.50;99.90;;;;;;5114836;27;20061;-72
2021/12/03 04:04:10;;;;;;;61.17;26.95;;;0.50;99.90;;;;;;5114495;27;20381;-72
2021/12/03 04:06:35;;;;;;;54.58;26.90;;;0.50;99.90;;;;;;5113573;27;20035;-71
2021/12/03 04:09:01;;;;;;;63.28;26.63;;;0.50;99.90;;;;;;5114565;27;20050;-72
2021/12/03 04:11:26;;;;;;;59.35;26.90;;;0.50;99.90;;;;;;5114610;27;20031;-70
2021/12/03 04:13:52;;;;;;;58.40;26.13;;;0.50;99.90;;;;;;5114886;27;20042;-72
2021/12/03 04:16:18;;;;;;;62.67;28.55;;;0.40;99.90;;;;;;5114726;27;20092;-72
2021/12/03 04:18:44;;;;;;;59.58;26.50;;;0.50;99.90;;;;;;5114381;27;20462;-71
2021/12/03 04:21:09;;;;;;;57.30;25.98;;;0.40;99.90;;;;;;5114135;27;20035;-71
2021/12/03 04:23:35;;;;;;;58.60;26.08;;;0.40;99.90;;;;;;5114452;27;20039;-70
2021/12/03 04:26:01;;;;;;;64.35;27.10;;;0.40;99.90;;;;;;5114376;27;20431;-70
2021/12/03 04:28:27;;;;;;;65.75;27.35;;;0.40;99.90;;;;;;5114403;27;20031;-69
2021/12/03 04:30:52;;;;;;;58.30;26.25;;;0.50;99.90;;;;;;5113925;27;20074;-72
2021/12/03 04:33:19;;;;;;;59.47;26.08;;;0.50;99.90;;;;;;5114042;27;20056;-72
2021/12/03 04:35:45;;;;;;;60.53;25.55;;;0.50;99.90;;;;;;5114240;27;20478;-71
2021/12/03 04:38:11;;;;;;;59.95;26.98;;;0.50;99.90;;;;;;5114091;27;20054;-72
2021/12/03 04:40:38;;;;;;;61.45;26.58;;;0.50;99.90;;;;;;5114424;27;20038;-71
2021/12/03 04:43:04;;;;;;;64.47;27.35;;;0.50;99.90;;;;;;5113575;27;20071;-72
2021/12/03 04:45:30;;;;;;;60.75;26.85;;;0.40;99.90;;;;;;5111547;27;20386;-70
2021/12/03 04:47:58;;;;;;;53.92;25.92;;;0.40;99.90;;;;;;5112409;27;20043;-72
2021/12/03 04:50:28;;;;;;;60.30;25.52;;;0.40;99.90;;;;;;5112561;27;20167;-72
2021/12/03 04:52:54;;;;;;;56.78;26.95;;;0.30;99.90;;;;;;5112459;27;20047;-71
2021/12/03 04:55:21;;;;;;;51.60;25.58;;;0.30;99.90;;;;;;5112492;27;20058;-72
2021/12/03 04:57:49;;;;;;;62.00;25.88;;;0.30;99.90;;;;;;5113591;27;20168;-71
2021/12/03 05:00:18;;;;;;;55.22;26.10;;;0.30;99.90;;;;;;5112235;27;20035;-71
2021/12/03 05:02:45;;;;;;;62.70;26.58;;;0.30;99.90;;;;;;5112544;27;20031;-71
2021/12/03 05:05:11;;;;;;;58.10;25.52;;;0.30;99.90;;;;;;5124640;27;20480;-70
2021/12/03 05:10:02;;;;;;;55.70;24.63;;;0.40;99.90;;;;;;5112783;27;20138;-72
2021/12/03 05:12:28;;;;;;;53.30;24.10;;;0.50;99.90;;;;;;5113484;27;20084;-70
2021/12/03 05:14:54;;;;;;;59.30;24.25;;;0.50;99.90;;;;;;5096107;27;20042;-71
2021/12/03 05:17:19;;;;;;;56.42;24.20;;;0.60;99.90;;;;;;5096175;27;20750;-72
2021/12/03 05:19:45;;;;;;;58.63;24.90;;;0.60;99.90;;;;;;5095176;27;20038;-72
2021/12/03 05:22:12;;;;;;;56.20;22.63;;;0.70;99.90;;;;;;5113541;27;20035;-69
2021/12/03 05:24:38;;;;;;;54.67;23.27;;;0.70;99.90;;;;;;5113199;27;20490;-71
2021/12/03 05:27:04;;;;;;;52.90;21.50;;;0.80;99.90;;;;;;5113150;28;20030;-72
2021/12/03 05:29:29;;;;;;;47.35;20.70;;;0.80;99.90;;;;;;5113069;27;20456;-71
2021/12/03 05:31:55;;;;;;;51.03;21.13;;;0.90;99.90;;;;;;5112615;27;20079;-72
2021/12/03 05:34:20;;;;;;;49.88;20.27;;;0.90;99.90;;;;;;5113032;27;20066;-71
2021/12/03 05:36:46;;;;;;;49.67;20.38;;;0.90;99.90;;;;;;5112801;27;20063;-72
2021/12/03 05:39:13;;;;;;;48.00;20.50;;;0.90;99.90;;;;;;5112752;27;20039;-70
2021/12/03 05:41:39;;;;;;;44.83;19.98;;;0.90;99.90;;;;;;5113968;28;20027;-71
2021/12/03 05:44:05;;;;;;;51.40;18.63;;;0.90;99.90;;;;;;5114257;27;20381;-71
2021/12/03 05:46:31;;;;;;;49.45;19.02;;;1.00;99.90;;;;;;5113466;27;20039;-70
2021/12/03 05:48:57;;;;;;;44.03;20.13;;;1.00;99.90;;;;;;5113829;28;20062;-70
2021/12/03 05:51:25;;;;;;;49.28;19.10;;;1.00;99.90;;;;;;5113166;28;20072;-70
2021/12/03 05:53:51;;;;;;;49.75;18.20;;;1.00;99.90;;;;;;5113461;28;20054;-69
2021/12/03 05:56:16;;;;;;;42.90;17.02;;;1.00;99.90;;;;;;5111123;28;20039;-69
2021/12/03 05:58:42;;;;;;;38.45;15.50;;;1.10;99.90;;;;;;5113533;28;20053;-71
2021/12/03 06:01:08;;;;;;;38.03;14.07;;;1.10;99.90;;;;;;5113121;28;20024;-71
2021/12/03 06:03:33;;;;;;;40.97;15.05;;;1.10;99.90;;;;;;5113328;28;20031;-72
2021/12/03 06:05:59;;;;;;;36.00;12.90;;;1.10;99.90;;;;;;5096121;28;20039;-71
2021/12/03 06:08:24;;;;;;;36.67;13.90;;;1.20;99.90;;;;;;5112727;28;20031;-73
2021/12/03 06:10:50;;;;;;;33.03;13.25;;;1.20;99.90;;;;;;5112939;28;20041;-72
2021/12/03 06:13:16;;;;;;;31.10;11.80;;;1.20;99.90;;;;;;5113312;28;20090;-69
2021/12/03 06:15:41;;;;;;;38.67;13.55;;;1.20;99.90;;;;;;5112717;28;20042;-70
2021/12/03 06:18:07;;;;;;;34.55;14.07;;;1.30;99.90;;;;;;5099721;28;20047;-69
2021/12/03 06:20:33;;;;;;;32.42;13.65;;;1.30;99.90;;;;;;5113325;28;20492;-69
2021/12/03 06:22:58;;;;;;;32.50;13.82;;;1.40;99.90;;;;;;5113509;28;20034;-72
2021/12/03 06:25:24;;;;;;;36.60;13.75;;;1.40;99.90;;;;;;5113730;28;20031;-69
2021/12/03 06:27:50;;;;;;;36.92;14.32;;;1.50;99.90;;;;;;5096855;28;20118;-67
2021/12/03 06:30:19;;;;;;;32.75;14.52;;;1.50;99.90;;;;;;5115532;27;20046;-68
2021/12/03 06:32:45;;;;;;;38.83;15.20;;;1.50;99.90;;;;;;5115305;27;20489;-67
2021/12/03 06:35:13;;;;;;;41.20;15.20;;;1.50;99.90;;;;;;5100651;27;20038;-69
2021/12/03 06:37:39;;;;;;;39.25;14.77;;;1.50;99.90;;;;;;5118014;27;20050;-69
2021/12/03 06:40:08;;;;;;;41.28;15.38;;;1.50;99.90;;;;;;5117203;27;20039;-67
2021/12/03 06:42:34;;;;;;;40.55;15.40;;;1.60;99.90;;;;;;5117954;27;20084;-67
2021/12/03 06:45:01;;;;;;;34.30;14.73;;;1.60;99.90;;;;;;5118763;27;20466;-68
2021/12/03 06:47:27;;;;;;;42.85;15.80;;;1.60;99.90;;;;;;5118166;27;20042;-68
2021/12/03 06:49:52;;;;;;;40.08;16.02;;;1.60;99.90;;;;;;5117384;27;20047;-66
2021/12/03 06:52:18;;;;;;;43.33;15.32;;;1.60;99.90;;;;;;5117000;27;20412;-68
2021/12/03 06:54:51;;;;;;;49.53;15.25;;;1.60;99.90;;;;;;5117359;27;20473;-70
2021/12/03 06:57:17;;;;;;;52.33;16.65;;;1.60;99.90;;;;;;5114700;27;20097;-71
2021/12/03 06:59:42;;;;;;;47.58;15.93;;;1.70;99.90;;;;;;5098972;27;20071;-70
2021/12/03 07:02:09;;;;;;;45.22;16.25;;;1.70;99.90;;;;;;5116751;27;20454;-67
2021/12/03 07:04:34;;;;;;;51.05;17.55;;;1.70;99.90;;;;;;5115492;27;20027;-69
2021/12/03 07:07:00;;;;;;;43.53;15.52;;;1.70;99.90;;;;;;5115650;27;20378;-69
2021/12/03 07:09:25;;;;;;;46.28;15.77;;;1.60;99.90;;;;;;5115420;27;20031;-72
2021/12/03 07:11:51;;;;;;;48.97;16.08;;;1.70;99.90;;;;;;5114950;27;20049;-71
2021/12/03 07:14:16;;;;;;;48.75;15.30;;;1.70;99.90;;;;;;5117066;27;20043;-70
2021/12/03 07:16:42;;;;;;;46.83;14.93;;;1.70;99.90;;;;;;5115152;27;20031;-70
2021/12/03 07:19:08;;;;;;;50.00;14.90;;;1.70;99.90;;;;;;5114657;27;20035;-71
2021/12/03 07:21:33;;;;;;;36.67;13.98;;;1.60;99.90;;;;;;5116020;27;20126;-72
2021/12/03 07:23:59;;;;;;;40.40;14.45;;;1.60;99.90;;;;;;5115405;27;20031;-72
2021/12/03 07:26:25;;;;;;;41.72;14.35;;;1.60;99.90;;;;;;5115248;27;20114;-72
2021/12/03 07:28:51;;;;;;;43.55;13.20;;;1.50;99.90;;;;;;5097992;27;20066;-72
2021/12/03 07:31:17;;;;;;;39.25;13.05;;;1.60;99.90;;;;;;5115041;27;20050;-71
2021/12/03 07:33:42;;;;;;;37.30;12.70;;;1.60;99.90;;;;;;5115011;27;20035;-72
2021/12/03 07:36:08;;;;;;;38.50;13.95;;;1.60;99.90;;;;;;5115012;27;20124;-71
2021/12/03 07:38:35;;;;;;;42.58;13.02;;;1.70;99.90;;;;;;5115349;27;20075;-72
2021/12/03 07:41:01;;;;;;;40.95;12.80;;;1.70;99.90;;;;;;5114806;27;20497;-71
2021/12/03 07:43:27;;;;;;;44.70;13.07;;;1.70;99.90;;;;;;5098198;27;20035;-70
2021/12/03 07:45:53;;;;;;;44.10;12.55;;;1.70;99.90;;;;;;5115371;27;20047;-71
2021/12/03 07:48:21;;;;;;;45.92;13.32;;;1.80;99.90;;;;;;5115990;27;20489;-72
2021/12/03 07:50:47;;;;;;;40.13;13.35;;;1.90;99.90;;;;;;5098636;27;20042;-73
2021/12/03 07:53:17;;;;;;;48.42;14.38;;;1.90;99.90;;;;;;5115174;27;20088;-71
2021/12/03 07:55:43;;;;;;;46.80;15.10;;;1.90;99.90;;;;;;5115161;27;20125;-73
2021/12/03 07:58:09;;;;;;;51.30;16.55;;;2.00;99.90;;;;;;5116221;27;20445;-71
2021/12/03 08:00:36;;;;;;;62.10;19.85;;;2.00;99.90;;;;;;5116049;27;20092;-71
2021/12/03 08:03:01;;;;;;;70.47;21.25;;;2.10;99.90;;;;;;5116517;27;20118;-74
2021/12/03 08:05:27;;;;;;;71.50;22.73;;;2.10;99.90;;;;;;5116247;27;20472;-75
2021/12/03 08:07:53;;;;;;;70.53;23.88;;;2.20;99.90;;;;;;5115953;27;20042;-70
2021/12/03 08:10:18;;;;;;;74.85;23.58;;;2.30;99.90;;;;;;5115999;27;20095;-72
2021/12/03 08:12:45;;;;;;;70.85;23.20;;;2.30;99.90;;;;;;5116379;27;20046;-74
2021/12/03 08:15:11;;;;;;;74.40;24.42;;;2.30;99.90;;;;;;5115957;27;20046;-72
2021/12/03 08:17:37;;;;;;;75.50;24.73;;;2.30;99.90;;;;;;5114642;27;20054;-71
2021/12/03 08:20:05;;;;;;;76.75;24.65;;;2.30;99.90;;;;;;5097767;27;20039;-72
2021/12/03 08:22:30;;;;;;;72.10;23.77;;;2.40;99.90;;;;;;5098594;27;20031;-72
2021/12/03 08:24:56;;;;;;;68.00;23.95;;;2.40;99.90;;;;;;5114597;27;20392;-71
2021/12/03 08:27:21;;;;;;;73.22;26.23;;;2.40;99.90;;;;;;5114898;27;20031;-73
2021/12/03 08:29:47;;;;;;;77.95;26.83;;;2.50;99.90;;;;;;5115043;27;20085;-73
2021/12/03 08:32:13;;;;;;;72.05;24.83;;;2.50;99.90;;;;;;5115156;27;20081;-74
2021/12/03 08:34:39;;;;;;;75.38;25.92;;;2.50;99.90;;;;;;5114816;27;20043;-70
2021/12/03 08:37:06;;;;;;;67.57;25.95;;;2.50;99.90;;;;;;5114939;27;20039;-71
2021/12/03 08:39:32;;;;;;;73.25;25.17;;;2.60;99.90;;;;;;5114677;27;20077;-72
2021/12/03 08:41:57;;;;;;;71.15;25.05;;;2.60;99.90;;;;;;5114544;27;20374;-73
2021/12/03 08:44:24;;;;;;;86.43;27.30;;;2.60;99.90;;;;;;5114747;27;20098;-70
2021/12/03 08:47:24;;;;;;;72.93;25.20;;;2.60;99.90;;;;;;5114399;27;20121;-74
2021/12/03 08:53:06;;;;;;;78.05;25.58;;;2.70;99.90;;;;;;5114122;27;20043;-73
2021/12/03 08:54:59;;;;;;;73.82;24.73;;;2.70;99.90;;;;;;5103878;27;20050;-71
2021/12/03 08:57:31;;;;;;;68.47;23.05;;;2.80;99.90;;;;;;5114284;27;20062;-71
2021/12/03 08:59:59;;;;;;;69.30;24.85;;;2.80;99.90;;;;;;5113943;27;20050;-72
2021/12/03 09:02:25;;;;;;;72.47;24.58;;;2.80;99.90;;;;;;5114498;27;20035;-72
2021/12/03 09:04:51;;;;;;;68.03;24.98;;;2.80;99.90;;;;;;5097271;27;20042;-71
2021/12/03 09:07:17;;;;;;;62.08;22.27;;;2.90;99.90;;;;;;5097327;27;20397;-73
2021/12/03 09:09:43;;;;;;;66.53;23.52;;;2.90;99.90;;;;;;5114779;27;20047;-72
2021/12/03 09:12:08;;;;;;;65.97;23.08;;;2.90;99.90;;;;;;5114691;27;20038;-72
2021/12/03 09:17:30;;;;;;;59.42;20.40;;;3.00;99.90;;;;;;5114185;27;20474;-70
2021/12/03 09:20:22;;;;;;;56.50;20.35;;;3.10;99.90;;;;;;5114015;27;20039;-68
2021/12/03 09:22:57;;;;;;;51.42;17.65;;;3.10;99.90;;;;;;5114904;27;20050;-68
2021/12/03 09:25:31;;;;;;;52.80;18.85;;;3.10;99.90;;;;;;5094163;28;20075;-72
2021/12/03 09:27:56;;;;;;;46.67;17.17;;;3.20;99.90;;;;;;5112241;27;20043;-71
2021/12/03 09:30:22;;;;;;;50.95;17.55;;;3.20;99.90;;;;;;5112556;27;20045;-73
2021/12/03 09:32:55;;;;;;;57.17;17.65;;;3.20;99.90;;;;;;5113149;27;20123;-69
2021/12/03 09:35:23;;;;;;;52.83;16.80;;;3.20;99.90;;;;;;5113264;27;20216;-73
2021/12/03 09:37:48;;;;;;;41.80;15.48;;;3.20;99.90;;;;;;5110610;27;20046;-70
2021/12/03 09:40:19;;;;;;;45.63;15.20;;;3.30;99.90;;;;;;5113714;28;20035;-70
2021/12/03 09:42:46;;;;;;;49.35;16.38;;;3.30;99.90;;;;;;5114756;28;20043;-71
2021/12/03 09:45:12;;;;;;;49.92;15.10;;;3.40;99.90;;;;;;5097052;28;20435;-69
2021/12/03 09:47:38;;;;;;;49.40;14.68;;;3.40;99.90;;;;;;5113876;27;20066;-70
2021/12/03 09:50:08;;;;;;;42.30;14.00;;;3.40;99.90;;;;;;5114325;28;20047;-69
2021/12/03 09:53:04;;;;;;;42.05;14.68;;;3.50;99.90;;;;;;5113959;28;20118;-73
2021/12/03 09:55:31;;;;;;;39.53;13.40;;;3.50;99.90;;;;;;5113629;28;20043;-70
2021/12/03 09:58:08;;;;;;;49.67;14.52;;;3.50;99.90;;;;;;5096706;28;20080;-70
2021/12/03 10:00:43;;;;;;;48.42;14.88;;;3.50;99.90;;;;;;5113306;28;20118;-69
2021/12/03 10:10:06;;;;;;;35.28;13.35;;;3.60;99.90;;;;;;5118231;27;20050;-70
2021/12/03 10:12:06;;;;;;;41.45;13.23;;;3.50;99.90;;;;;;5103123;27;20039;-73
2021/12/03 10:17:40;;;;;;;42.78;12.93;;;3.50;99.90;;;;;;5097611;28;20100;-71
2021/12/03 10:26:40;;;;;;;33.63;11.77;;;3.50;99.90;;;;;;5116442;27;20153;-71
2021/12/03 10:29:26;;;;;;;37.50;11.70;;;3.50;99.90;;;;;;5104686;27;20051;-71
2021/12/03 10:39:51;;;;;;;42.03;11.63;;;3.50;99.90;;;;;;5116667;27;20410;-70
2021/12/03 10:45:04;;;;;;;36.55;10.60;;;3.60;99.90;;;;;;5117595;27;20051;-71
2021/12/03 10:50:44;;;;;;;32.33;10.70;;;3.60;99.90;;;;;;5116358;27;20057;-68
2021/12/03 10:56:18;;;;;;;33.30;9.75;;;3.60;99.90;;;;;;5116575;27;20099;-70
2021/12/03 11:04:47;;;;;;;42.83;10.75;;;3.60;99.90;;;;;;5116652;27;20054;-69
2021/12/03 11:45:56;;;;;;;23.42;6.40;;;3.60;99.90;;;;;;5095353;28;20101;-68
2021/12/03 12:10:57;;;;;;;24.85;10.02;;;3.50;99.90;;;;;;5094507;28;20043;-70
2021/12/03 12:56:32;;;;;;;28.02;11.07;;;3.50;99.90;;;;;;5114220;27;20050;-69
2021/12/03 13:00:53;;;;;;;32.60;12.05;;;3.60;99.90;;;;;;5114210;27;20043;-72
2021/12/03 13:28:16;;;;;;;24.25;9.02;;;3.80;99.90;;;;;;5113713;27;20468;-72
2021/12/03 13:33:35;;;;;;;24.50;9.77;;;3.90;99.90;;;;;;5112145;27;20043;-74
2021/12/03 13:58:51;;;;;;;27.33;10.82;;;3.90;99.90;;;;;;5113249;28;20178;-69
2021/12/03 14:04:07;;;;;;;33.05;12.23;;;4.00;99.90;;;;;;5113476;28;20187;-69
2021/12/03 14:09:39;;;;;;;29.58;11.18;;;4.00;99.90;;;;;;5113301;28;20170;-75
2021/12/03 14:12:59;;;;;;;26.83;10.77;;;4.00;99.90;;;;;;5113343;28;20482;-68
2021/12/03 14:15:31;;;;;;;30.95;12.20;;;4.10;99.90;;;;;;5112514;28;20039;-69
2021/12/03 14:30:51;;;;;;;29.13;11.20;;;4.20;99.90;;;;;;5112965;28;20073;-70
2021/12/03 14:33:13;;;;;;;21.83;11.48;;;4.20;99.90;;;;;;5113000;28;20035;-71
2021/12/03 14:48:19;;;;;;;21.90;11.20;;;4.20;99.90;;;;;;5112832;28;20047;-67
2021/12/03 14:56:09;;;;;;;32.35;12.75;;;4.20;99.90;;;;;;5117022;27;20532;-69
2021/12/03 14:58:48;;;;;;;22.15;10.73;;;4.20;99.90;;;;;;5116844;27;20497;-72
2021/12/03 15:01:31;;;;;;;22.65;11.18;;;4.20;99.90;;;;;;5116596;27;20043;-70
2021/12/03 15:07:01;;;;;;;26.40;12.30;;;4.20;99.90;;;;;;5116765;27;20100;-71
2021/12/03 15:09:31;;;;;;;28.33;11.75;;;4.20;99.90;;;;;;5116138;27;20043;-69
2021/12/03 15:14:49;;;;;;;25.20;12.20;;;4.20;99.90;;;;;;5116203;27;20139;-71
2021/12/03 15:25:09;;;;;;;30.25;12.85;;;4.20;99.90;;;;;;5116395;27;20039;-70
2021/12/03 15:27:56;;;;;;;28.92;13.82;;;4.20;99.90;;;;;;5116046;27;20434;-72
2021/12/03 15:35:43;;;;;;;24.20;12.90;;;4.20;99.90;;;;;;5115998;27;20118;-67
2021/12/03 15:38:24;;;;;;;28.70;14.35;;;4.20;99.90;;;;;;5116048;27;20047;-72
2021/12/03 15:52:26;;;;;;;26.85;13.02;;;4.30;99.90;;;;;;5107877;27;20036;-71
2021/12/03 16:08:01;;;;;;;30.80;14.02;;;4.30;99.90;;;;;;5094342;28;20130;-70
2021/12/03 16:10:44;;;;;;;32.88;14.80;;;4.30;99.90;;;;;;5094447;28;20050;-71
2021/12/03 16:13:28;;;;;;;28.55;15.35;;;4.30;99.90;;;;;;5084018;27;20417;-70
2021/12/03 16:19:00;;;;;;;30.00;14.60;;;4.30;99.90;;;;;;5114849;27;20105;-72
2021/12/03 16:26:55;;;;;;;30.77;15.20;;;4.30;99.90;;;;;;5114734;27;20401;-72
2021/12/03 16:51:13;;;;;;;36.60;17.13;;;4.40;99.90;;;;;;5113849;27;20058;-70
2021/12/03 16:53:39;;;;;;;39.58;18.60;;;4.40;99.90;;;;;;5106695;28;20123;-68
2021/12/03 16:56:11;;;;;;;37.25;18.40;;;4.40;99.90;;;;;;5103989;27;20035;-70
2021/12/03 16:58:39;;;;;;;40.08;19.88;;;4.40;99.90;;;;;;5113860;27;20043;-72
2021/12/03 17:01:12;;;;;;;40.90;19.13;;;4.40;99.90;;;;;;5113775;27;20031;-72
2021/12/03 17:25:09;;;;;;;43.15;20.70;;;4.40;99.90;;;;;;5113231;27;20484;-68
2021/12/03 17:49:50;;;;;;;57.88;24.92;;;4.40;99.90;;;;;;5125470;27;20054;-68
2021/12/03 18:00:05;;;;;;;59.90;24.23;;;4.40;99.90;;;;;;5109048;28;20074;-72
2021/12/03 18:02:38;;;;;;;65.50;25.58;;;4.40;99.90;;;;;;5130821;28;20071;-71
2021/12/03 18:05:24;;;;;;;62.15;24.67;;;4.40;99.90;;;;;;5112461;28;20074;-70
2021/12/03 18:08:00;;;;;;;68.80;26.45;;;4.40;99.90;;;;;;5110240;28;20054;-70
2021/12/03 18:10:41;;;;;;;66.10;25.67;;;4.40;99.90;;;;;;5110878;28;20168;-72
2021/12/03 18:13:31;;;;;;;64.50;25.60;;;4.40;99.90;;;;;;5111208;28;20031;-66
2021/12/03 18:19:12;;;;;;;69.00;26.30;;;4.40;99.90;;;;;;5112398;28;20042;-66
2021/12/03 18:43:54;;;;;;;69.07;25.35;;;4.40;99.90;;;;;;5116545;27;20393;-67
2021/12/03 18:51:49;;;;;;;74.18;27.73;;;4.40;99.90;;;;;;5128798;27;20043;-67
2021/12/03 18:54:38;;;;;;;74.57;28.05;;;4.50;99.90;;;;;;5115305;27;20115;-69
2021/12/03 18:57:27;;;;;;;65.35;26.35;;;4.40;99.90;;;;;;5115229;27;20468;-70
2021/12/03 18:59:55;;;;;;;73.88;27.50;;;4.40;99.90;;;;;;5115105;27;20394;-69
2021/12/03 19:02:25;;;;;;;68.82;24.77;;;4.40;99.90;;;;;;5115567;27;20055;-67
2021/12/03 19:04:57;;;;;;;72.78;26.67;;;4.50;99.90;;;;;;5109274;27;20111;-70
2021/12/03 19:07:41;;;;;;;71.15;26.67;;;4.50;99.90;;;;;;5115290;27;20066;-69
2021/12/03 19:10:12;;;;;;;69.85;26.02;;;4.50;99.90;;;;;;5095675;27;20031;-67
2021/12/03 19:12:41;;;;;;;78.35;29.92;;;4.50;99.90;;;;;;5111025;27;20031;-74
2021/12/03 19:15:09;;;;;;;70.03;26.25;;;4.50;99.90;;;;;;5114295;27;20579;-68
2021/12/03 19:17:37;;;;;;;75.05;27.35;;;4.50;99.90;;;;;;5114489;27;20039;-67